Time;durP1;ratioP1;P1;durP2;ratioP2;P2;SDS_P1;SDS_P2;PMS_P1;PMS_P2;Temp;Humidity;BMP_temperature;BMP_pressure;BME280_temperature;BME280_humidity;BME280_pressure;Samples;Min_cycle;Max_cycle;Signal;HPM_P1;HPM_P2
2021/03/28 00:01:11;;;;;;;29.75;22.83;;;;;;;18.89;48.53;100930.56;2075453;28;20072;-71
2021/03/28 00:02:11;;;;;;;32.05;22.73;;;;;;;18.88;48.53;100928.81;2079924;28;20442;-72
2021/03/28 00:03:22;;;;;;;34.30;24.47;;;;;;;18.84;48.61;100923.63;2079532;28;20147;-72
2021/03/28 00:04:26;;;;;;;33.38;24.20;;;;;;;18.85;48.45;100930.81;2079535;28;20052;-72
2021/03/28 00:05:31;;;;;;;35.92;25.42;;;;;;;18.87;48.61;100927.09;2074487;28;20065;-71
2021/03/28 00:06:34;;;;;;;34.03;24.58;;;;;;;18.87;48.48;100932.56;2076420;28;20021;-71
2021/03/28 00:07:47;;;;;;;33.45;24.95;;;;;;;18.85;48.44;100925.34;2083565;28;20086;-71
2021/03/28 00:09:05;;;;;;;;;;;;;;;18.82;48.63;100925.63;2073871;28;20105;-70
2021/03/28 00:10:23;;;;;;;31.33;23.67;;;;;;;18.82;48.78;100925.63;2073643;28;19909;-70
2021/03/28 00:11:23;;;;;;;29.98;22.75;;;;;;;18.84;48.64;100930.97;2073280;28;20056;-71
2021/03/28 00:12:28;;;;;;;41.77;25.77;;;;;;;18.86;48.52;100926.22;2081353;28;20033;-72
2021/03/28 00:13:30;;;;;;;35.40;24.83;;;;;;;18.89;48.53;100925.97;2080262;28;20487;-72
2021/03/28 00:14:36;;;;;;;34.58;26.45;;;;;;;18.88;48.56;100928.81;2078914;28;20044;-72
2021/03/28 00:15:41;;;;;;;36.55;26.55;;;;;;;18.88;48.50;100931.56;2074802;28;20034;-72
2021/03/28 00:16:46;;;;;;;36.05;25.25;;;;;;;18.85;48.46;100930.81;2078588;28;20036;-72
2021/03/28 00:17:49;;;;;;;33.83;26.27;;;;;;;18.84;48.50;100929.09;2079391;28;20590;-72
2021/03/28 00:19:01;;;;;;;32.50;25.25;;;;;;;18.83;48.55;100932.81;2079311;28;20047;-72
2021/03/28 00:20:16;;;;;;;36.85;26.35;;;;;;;18.84;48.37;100923.63;2078127;28;20034;-71
2021/03/28 00:21:19;;;;;;;33.10;23.88;;;;;;;18.83;48.54;100926.47;2071792;28;20029;-71
2021/03/28 00:22:24;;;;;;;36.22;26.83;;;;;;;18.81;48.46;100929.34;2078559;28;20033;-72
2021/03/28 00:23:27;;;;;;;33.35;25.08;;;;;;;18.80;48.37;100922.13;2079678;28;20599;-72
2021/03/28 00:24:31;;;;;;;32.92;25.67;;;;;;;18.80;48.51;100930.34;2080137;28;20108;-71
2021/03/28 00:25:34;;;;;;;35.97;26.60;;;;;;;18.80;48.60;100922.13;2078669;28;20039;-72
2021/03/28 00:27:06;;;;;;;33.08;25.35;;;;;;;18.80;48.50;100924.88;2077701;28;20021;-72
2021/03/28 00:28:20;;;;;;;35.70;26.17;;;;;;;18.81;48.50;100923.91;2074664;28;20530;-71
2021/03/28 00:29:25;;;;;;;35.15;25.75;;;;;;;18.81;48.55;100929.34;2072028;28;20093;-71
2021/03/28 00:30:37;;;;;;;33.53;26.35;;;;;;;18.82;48.46;100924.75;2076572;28;20040;-71
2021/03/28 00:31:53;;;;;;;34.42;25.80;;;;;;;18.82;48.51;100922.88;2079284;28;20106;-71
2021/03/28 00:33:22;;;;;;;33.08;27.00;;;;;;;18.80;48.40;100924.00;2079286;28;20029;-71
2021/03/28 00:34:36;;;;;;;33.85;24.52;;;;;;;18.80;48.50;100921.28;2071263;28;20400;-71
2021/03/28 00:35:46;;;;;;;33.25;25.15;;;;;;;18.79;48.54;100923.16;2074875;28;20704;-71
2021/03/28 00:36:52;;;;;;;34.10;26.40;;;;;;;18.80;48.43;100922.13;2077089;28;20061;-71
2021/03/28 00:38:22;;;;;;;34.58;25.95;;;;;;;18.77;48.62;100927.88;2079760;28;20109;-72
2021/03/28 00:40:00;;;;;;;34.58;26.13;;;;;;;18.76;48.47;100922.53;2077905;28;20029;-71
2021/03/28 00:41:06;;;;;;;32.53;23.92;;;;;;;18.76;48.61;100923.38;2075649;28;20040;-69
2021/03/28 00:42:25;;;;;;;32.83;24.70;;;;;;;18.75;48.68;100924.34;2069878;28;20044;-70
2021/03/28 00:43:27;;;;;;;31.10;24.50;;;;;;;18.71;48.48;100916.53;2077914;28;20030;-70
2021/03/28 00:44:29;;;;;;;33.60;25.58;;;;;;;18.68;48.65;100917.66;2076704;28;20033;-70
2021/03/28 00:45:44;;;;;;;31.48;23.55;;;;;;;18.66;48.49;100924.25;2071922;28;20030;-70
2021/03/28 00:46:51;;;;;;;34.67;24.80;;;;;;;18.62;48.56;100919.06;2078037;28;20021;-70
2021/03/28 00:48:12;;;;;;;30.63;23.85;;;;;;;18.62;48.64;100918.19;2076622;28;20729;-70
2021/03/28 00:49:27;;;;;;;29.27;22.98;;;;;;;18.59;48.69;100918.44;2078786;28;20017;-70
2021/03/28 00:50:36;;;;;;;31.38;23.08;;;;;;;18.60;48.65;100917.44;2078568;28;20060;-70
2021/03/28 00:51:45;;;;;;;27.38;20.45;;;;;;;18.59;48.70;100915.69;2076442;28;20530;-70
2021/03/28 00:52:59;;;;;;;30.52;22.88;;;;;;;18.58;48.73;100912.09;2075832;28;20021;-70
2021/03/28 00:54:24;;;;;;;27.83;20.75;;;;;;;18.58;48.87;100922.16;2077112;28;20036;-69
2021/03/28 00:55:28;;;;;;;24.75;17.95;;;;;;;18.58;48.66;100919.44;2072703;28;20030;-70
2021/03/28 00:56:52;;;;;;;27.02;17.58;;;;;;;18.58;48.77;100916.69;2083716;28;20145;-70
2021/03/28 00:57:58;;;;;;;23.48;17.40;;;;;;;18.59;48.81;100921.16;2074858;28;20120;-69
2021/03/28 00:59:20;;;;;;;26.38;18.75;;;;;;;18.60;48.82;100917.44;2078011;28;20031;-69
2021/03/28 01:00:21;;;;;;;25.63;17.17;;;;;;;18.60;48.69;100922.91;2076946;28;20380;-70
2021/03/28 01:01:31;;;;;;;25.07;16.30;;;;;;;18.60;48.72;100920.19;2078700;28;20044;-70
2021/03/28 01:02:39;;;;;;;23.88;16.30;;;;;;;18.59;48.96;100919.31;2075980;28;20635;-70
2021/03/28 01:04:11;;;;;;;23.08;17.20;;;;;;;18.60;48.99;100911.97;2077483;28;20735;-69
2021/03/28 01:05:37;;;;;;;21.90;16.85;;;;;;;18.61;48.77;100916.44;2078252;28;20582;-68
2021/03/28 01:06:50;;;;;;;26.70;16.00;;;;;;;18.60;48.92;100914.72;2074798;28;20198;-69
2021/03/28 01:08:01;;;;;;;25.08;16.45;;;;;;;18.59;48.85;100913.84;2076899;28;20542;-69
2021/03/28 01:09:17;;;;;;;19.73;15.20;;;;;;;18.60;48.90;100920.19;2077526;28;20832;-69
2021/03/28 01:10:45;;;;;;;25.02;18.55;;;;;;;18.60;48.76;100910.13;2076576;28;20272;-68
2021/03/28 01:12:02;;;;;;;21.73;16.77;;;;;;;18.59;48.75;100912.97;2072117;28;20061;-68
2021/03/28 01:13:40;;;;;;;22.20;16.92;;;;;;;18.58;48.66;100905.78;2079425;28;20623;-68
2021/03/28 01:14:48;;;;;;;26.45;20.67;;;;;;;18.58;48.50;100911.25;2079355;28;20037;-70
2021/03/28 01:16:16;;;;;;;27.65;21.30;;;;;;;18.57;48.71;100912.22;2076853;28;20068;-68
2021/03/28 01:17:35;;;;;;;26.88;20.38;;;;;;;18.56;48.70;100918.69;2079992;28;20088;-69
2021/03/28 01:19:05;;;;;;;29.15;20.42;;;;;;;18.56;48.77;100913.22;2079920;28;20029;-69
2021/03/28 01:20:32;;;;;;;26.98;20.45;;;;;;;18.55;48.57;100914.22;2075735;28;20396;-68
2021/03/28 01:21:47;;;;;;;28.48;21.50;;;;;;;18.55;48.76;100916.97;2080820;28;20036;-68
2021/03/28 01:22:50;;;;;;;27.20;20.02;;;;;;;18.54;48.62;100907.00;2078609;28;20558;-69
2021/03/28 01:24:29;;;;;;;26.80;19.50;;;;;;;18.54;48.52;100907.00;2071793;28;20535;-69
2021/03/28 01:25:31;;;;;;;25.42;20.08;;;;;;;18.53;48.63;100902.56;2078790;28;20746;-68
2021/03/28 01:26:57;;;;;;;;;;;;;;;18.52;48.79;100898.06;2077841;28;20033;-69
2021/03/28 01:28:26;;;;;;;26.88;19.52;;;;;;;18.52;48.68;100906.28;2073609;28;19931;-68
2021/03/28 01:29:37;;;;;;;28.58;19.98;;;;;;;18.52;48.84;100900.81;2078246;28;20542;-69
2021/03/28 01:30:46;;;;;;;26.25;20.58;;;;;;;18.51;48.66;100904.53;2074345;28;20025;-71
2021/03/28 01:31:51;;;;;;;25.90;19.40;;;;;;;18.50;48.66;100900.97;2078825;28;20539;-69
2021/03/28 01:33:08;;;;;;;25.95;19.20;;;;;;;18.51;48.57;100901.81;2076418;28;20040;-69
2021/03/28 01:34:09;;;;;;;26.02;17.75;;;;;;;18.50;48.52;100902.81;2071478;28;20026;-69
2021/03/28 01:35:09;;;;;;;25.57;19.60;;;;;;;18.51;48.50;100899.94;2071894;28;20034;-69
2021/03/28 01:36:20;;;;;;;26.70;20.27;;;;;;;18.52;48.74;100906.28;2081806;28;20361;-68
2021/03/28 01:37:29;;;;;;;24.77;17.85;;;;;;;18.50;48.69;100906.41;2071819;28;20676;-68
2021/03/28 01:38:44;;;;;;;27.45;21.00;;;;;;;18.50;48.66;100908.28;2078976;28;20059;-68
2021/03/28 01:40:12;;;;;;;24.00;19.05;;;;;;;18.50;48.80;100911.00;2073343;28;20041;-69
2021/03/28 01:41:27;;;;;;;28.95;21.40;;;;;;;18.50;48.71;100902.81;2078779;28;20384;-69
2021/03/28 01:42:49;;;;;;;27.52;19.15;;;;;;;18.49;48.66;100901.06;2073359;28;20036;-68
2021/03/28 01:43:58;;;;;;;26.90;19.58;;;;;;;18.49;48.44;100906.53;2085957;28;20037;-69
2021/03/28 01:45:10;;;;;;;28.77;19.65;;;;;;;18.49;48.65;100906.53;2082999;28;20029;-69
2021/03/28 01:46:29;;;;;;;25.90;20.08;;;;;;;18.49;48.62;100906.53;2077739;28;20052;-68
2021/03/28 01:47:48;;;;;;;23.45;18.27;;;;;;;18.48;48.45;100905.66;2074097;28;20033;-69
2021/03/28 01:49:08;;;;;;;24.30;20.20;;;;;;;18.48;48.62;100904.81;2078373;28;20014;-68
2021/03/28 01:50:34;;;;;;;25.20;19.30;;;;;;;18.50;48.65;100909.16;2076340;28;20477;-69
2021/03/28 01:51:48;;;;;;;25.08;18.27;;;;;;;18.49;48.59;100904.66;2071458;28;20472;-69
2021/03/28 01:52:51;;;;;;;24.27;18.63;;;;;;;18.50;48.72;100909.16;2078514;28;20025;-68
2021/03/28 01:54:10;;;;;;;27.50;19.70;;;;;;;18.51;48.36;100910.00;2078950;28;20629;-68
2021/03/28 01:55:24;;;;;;;24.63;18.00;;;;;;;18.56;48.39;100910.50;2073654;28;20059;-68
2021/03/28 01:56:50;;;;;;;30.77;18.25;;;;;;;18.55;48.54;100909.63;2082436;28;20037;-69
2021/03/28 01:58:09;;;;;;;28.52;17.42;;;;;;;18.56;48.54;100903.16;2084510;28;20179;-69
2021/03/28 01:59:32;;;;;;;28.58;19.15;;;;;;;18.54;48.55;100902.41;2082919;28;20026;-69
2021/03/28 02:01:01;;;;;;;21.33;15.98;;;;;;;18.58;48.53;100900.31;2082752;28;20021;-70
2021/03/28 02:02:23;;;;;;;24.60;17.77;;;;;;;18.57;48.30;100910.38;2082527;28;20502;-68
2021/03/28 02:03:34;;;;;;;27.83;18.75;;;;;;;18.59;48.31;100912.97;2082689;28;20041;-68
2021/03/28 02:04:38;;;;;;;24.90;19.23;;;;;;;18.59;48.12;100907.50;2082758;28;20092;-69
2021/03/28 02:06:05;;;;;;;25.73;18.42;;;;;;;18.61;48.01;100905.50;2081829;28;20031;-68
2021/03/28 02:07:45;;;;;;;24.35;17.98;;;;;;;18.64;48.06;100910.72;2082663;28;20026;-69
2021/03/28 02:09:00;;;;;;;25.90;18.60;;;;;;;18.62;48.12;100912.72;2073645;28;20065;-69
2021/03/28 02:10:26;;;;;;;27.17;19.08;;;;;;;18.64;48.07;100911.59;2073768;28;20052;-70
2021/03/28 02:11:47;;;;;;;23.42;17.33;;;;;;;18.64;48.16;100910.72;2080069;28;20476;-69
2021/03/28 02:12:55;;;;;;;23.98;17.85;;;;;;;18.64;48.17;100905.25;2089364;28;20128;-70
2021/03/28 02:14:30;;;;;;;24.20;18.80;;;;;;;18.64;48.15;100914.34;2091221;28;20074;-69
2021/03/28 02:15:36;;;;;;;25.27;18.42;;;;;;;18.68;48.00;100909.47;2090933;28;20369;-68
2021/03/28 02:18:42;;;;;;;22.02;17.45;;;;;;;18.70;47.87;100909.38;2090881;28;20029;-69
2021/03/28 02:20:04;;;;;;;24.83;18.02;;;;;;;18.68;48.02;100912.22;2088695;28;20025;-69
2021/03/28 02:21:13;;;;;;;25.40;19.30;;;;;;;18.69;47.99;100905.78;2082004;28;20095;-69
2021/03/28 02:22:28;;;;;;;23.20;17.35;;;;;;;18.67;48.10;100910.47;2082424;28;20053;-69
2021/03/28 02:23:47;;;;;;;22.95;17.33;;;;;;;18.67;47.96;100905.03;2084164;28;20462;-69
2021/03/28 02:25:10;;;;;;;27.40;17.83;;;;;;;18.69;48.20;100913.06;2089002;28;20495;-69
2021/03/28 02:26:31;;;;;;;22.85;17.50;;;;;;;18.68;47.96;100906.75;2082357;28;20083;-68
2021/03/28 02:28:10;;;;;;;27.00;19.17;;;;;;;18.70;47.99;100904.75;2081506;28;20040;-68
2021/03/28 02:31:29;;;;;;;22.45;18.10;;;;;;;18.75;48.05;100907.97;2082143;28;20018;-69
2021/03/28 02:32:48;;;;;;;26.75;19.63;;;;;;;18.74;48.21;100906.25;2056950;28;20520;-68
2021/03/28 02:34:17;;;;;;;26.48;19.83;;;;;;;18.74;48.24;100906.25;2086689;28;20071;-68
2021/03/28 02:35:36;;;;;;;24.25;18.88;;;;;;;18.75;48.00;100913.44;2089606;28;20029;-68
2021/03/28 02:37:11;;;;;;;27.23;17.65;;;;;;;18.77;48.15;100911.47;2082668;28;20036;-68
2021/03/28 02:38:31;;;;;;;25.60;18.20;;;;;;;18.75;48.15;100902.50;2081723;28;20140;-69
2021/03/28 02:39:52;;;;;;;20.83;17.42;;;;;;;18.74;48.25;100908.97;2078006;28;20463;-69
2021/03/28 02:41:16;;;;;;;24.13;17.27;;;;;;;18.75;48.25;100904.38;2090455;28;20025;-69
2021/03/28 02:42:17;;;;;;;23.20;17.55;;;;;;;18.75;48.30;100907.97;2082324;28;20436;-67
2021/03/28 02:43:35;;;;;;;21.80;17.20;;;;;;;18.74;48.28;100899.91;2083993;28;20028;-68
2021/03/28 02:44:42;;;;;;;26.55;17.88;;;;;;;18.72;48.51;100900.03;2082112;28;20030;-68
2021/03/28 02:45:47;;;;;;;31.67;17.95;;;;;;;18.73;48.32;100899.03;2089808;28;20036;-69
2021/03/28 02:47:09;;;;;;;25.27;18.77;;;;;;;18.74;48.32;100900.78;2086470;28;20051;-68
2021/03/28 02:48:44;;;;;;;24.80;18.75;;;;;;;18.72;48.35;100891.84;2073904;28;20396;-68
2021/03/28 02:50:07;;;;;;;24.73;16.90;;;;;;;18.70;48.54;100890.25;2077560;28;20574;-68
2021/03/28 02:52:04;;;;;;;22.08;17.23;;;;;;;18.70;48.56;100893.84;2072729;28;20045;-68
2021/03/28 02:53:23;;;;;;;23.52;18.40;;;;;;;18.69;48.65;100886.66;2061748;28;20054;-72
2021/03/28 02:55:00;;;;;;;27.02;18.67;;;;;;;18.71;48.46;100890.09;2064988;28;20126;-69
2021/03/28 02:56:00;;;;;;;24.75;17.85;;;;;;;18.71;48.83;100879.16;2064566;28;20027;-69
2021/03/28 02:57:04;;;;;;;23.20;18.07;;;;;;;18.71;48.52;100879.16;2062928;28;20101;-69
2021/03/28 02:58:20;;;;;;;22.60;18.15;;;;;;;18.71;48.74;100884.63;2070451;28;20030;-69
2021/03/28 02:59:24;;;;;;;24.15;16.95;;;;;;;18.71;48.53;100886.50;2082620;28;20476;-69
2021/03/28 03:01:01;;;;;;;27.17;18.50;;;;;;;18.70;48.74;100876.59;2081568;28;20038;-69
2021/03/28 03:02:28;;;;;;;21.77;17.65;;;;;;;18.69;48.67;100880.28;2080680;28;20017;-69
2021/03/28 03:03:56;;;;;;;22.42;18.05;;;;;;;18.70;48.60;100877.44;2081427;28;20055;-69
2021/03/28 03:05:08;;;;;;;23.75;18.83;;;;;;;18.69;48.78;100874.84;2081694;28;20514;-69
2021/03/28 03:06:16;;;;;;;24.50;17.63;;;;;;;18.70;48.77;100887.50;2082014;28;20391;-69
2021/03/28 03:07:47;;;;;;;26.17;18.65;;;;;;;18.69;48.62;100886.66;2082378;28;20029;-69
2021/03/28 03:09:02;;;;;;;23.90;17.35;;;;;;;18.71;48.50;100890.09;2081880;28;20025;-71
2021/03/28 03:10:14;;;;;;;22.20;17.33;;;;;;;18.72;48.54;100878.19;2085182;28;20116;-72
2021/03/28 03:11:44;;;;;;;24.42;17.75;;;;;;;18.76;48.46;100885.16;2085573;28;20129;-71
2021/03/28 03:13:08;;;;;;;22.10;16.98;;;;;;;18.77;48.45;100886.03;2073426;28;20057;-70
2021/03/28 03:14:23;;;;;;;21.80;16.40;;;;;;;18.77;48.51;100878.72;2082715;28;20021;-71
2021/03/28 03:15:47;;;;;;;21.85;17.52;;;;;;;18.78;48.34;100882.28;2090579;28;20078;-69
2021/03/28 03:16:53;;;;;;;22.90;17.00;;;;;;;18.80;48.35;100883.91;2087121;28;20025;-69
2021/03/28 03:18:06;;;;;;;21.50;17.55;;;;;;;18.79;48.26;100879.44;2086644;28;20025;-70
2021/03/28 03:19:19;;;;;;;21.40;17.08;;;;;;;18.79;48.32;100879.44;2082125;28;20104;-69
2021/03/28 03:20:51;;;;;;;21.02;16.17;;;;;;;18.79;48.30;100867.63;2081949;28;20061;-69
2021/03/28 03:22:12;;;;;;;22.45;17.55;;;;;;;18.80;48.25;100877.56;2082237;28;20030;-69
2021/03/28 03:23:37;;;;;;;26.98;18.20;;;;;;;18.79;48.33;100878.56;2082294;28;20021;-70
2021/03/28 03:25:22;;;;;;;21.65;17.75;;;;;;;18.81;48.35;100880.19;2082313;28;20029;-70
2021/03/28 03:26:31;;;;;;;25.05;17.27;;;;;;;18.83;48.23;100880.91;2081351;28;20180;-70
2021/03/28 03:27:32;;;;;;;22.92;17.90;;;;;;;18.87;48.08;100877.94;2078437;28;20025;-70
2021/03/28 03:28:57;;;;;;;23.00;17.00;;;;;;;18.87;48.09;100876.06;2079715;28;20041;-70
2021/03/28 03:29:58;;;;;;;23.35;17.38;;;;;;;18.85;48.31;100878.91;2084027;28;20742;-71
2021/03/28 03:31:16;;;;;;;26.50;17.83;;;;;;;18.88;48.10;100874.19;2074045;28;20385;-68
2021/03/28 03:32:49;;;;;;;25.25;17.70;;;;;;;18.88;48.13;100874.19;2073899;28;20519;-69
2021/03/28 03:34:15;;;;;;;22.13;17.05;;;;;;;18.88;48.10;100874.19;2073440;28;20038;-69
2021/03/28 03:35:18;;;;;;;22.40;16.33;;;;;;;18.87;48.24;100872.47;2073903;28;20428;-70
2021/03/28 03:36:18;;;;;;;19.17;16.73;;;;;;;18.88;48.18;100885.97;2073820;28;20099;-70
2021/03/28 03:37:21;;;;;;;23.93;16.80;;;;;;;18.86;48.23;100877.03;2085155;28;20021;-70
2021/03/28 03:38:50;;;;;;;21.75;16.40;;;;;;;18.85;48.16;100884.38;2087940;28;20093;-69
2021/03/28 03:40:15;;;;;;;24.00;16.33;;;;;;;18.86;48.38;100882.50;2081798;28;20375;-70
2021/03/28 03:41:21;;;;;;;22.88;16.65;;;;;;;18.88;48.26;100880.53;2088287;28;20410;-69
2021/03/28 03:42:49;;;;;;;21.60;16.75;;;;;;;18.85;48.45;100881.66;2090312;28;20028;-69
2021/03/28 03:43:58;;;;;;;22.55;16.67;;;;;;;18.85;48.40;100887.13;2090633;28;20048;-70
2021/03/28 03:45:23;;;;;;;21.63;16.17;;;;;;;18.82;48.29;100881.91;2090477;28;20020;-70
2021/03/28 03:46:36;;;;;;;23.73;17.73;;;;;;;18.82;48.46;100876.44;2090128;28;20021;-69
2021/03/28 03:47:43;;;;;;;20.88;15.68;;;;;;;18.82;48.31;100887.38;2090339;28;20033;-69
2021/03/28 03:48:43;;;;;;;21.90;17.02;;;;;;;18.83;48.51;100883.63;2085234;28;20029;-70
2021/03/28 03:50:05;;;;;;;20.17;16.63;;;;;;;18.82;48.39;100881.91;2081222;28;20041;-69
2021/03/28 03:51:33;;;;;;;19.65;16.25;;;;;;;18.83;48.38;100882.78;2084203;28;20108;-69
2021/03/28 03:52:36;;;;;;;20.98;16.50;;;;;;;18.83;48.31;100878.16;2082042;28;20033;-69
2021/03/28 03:53:53;;;;;;;21.83;16.70;;;;;;;18.83;48.38;100871.84;2081800;28;20475;-69
2021/03/28 03:55:06;;;;;;;22.10;15.45;;;;;;;18.84;48.45;100877.19;2081928;28;20357;-69
2021/03/28 03:56:23;;;;;;;;;;;;;;;18.80;48.49;100870.25;2082212;28;20372;-69
2021/03/28 03:57:37;;;;;;;20.13;15.88;;;;;;;18.79;48.60;100876.72;2082122;28;19916;-69
2021/03/28 03:58:52;;;;;;;20.45;15.90;;;;;;;18.79;48.41;100875.81;2081829;28;20037;-69
2021/03/28 04:00:02;;;;;;;22.52;16.27;;;;;;;18.79;48.59;100879.44;2080936;28;20018;-69
2021/03/28 04:01:08;;;;;;;22.27;16.63;;;;;;;18.79;48.50;100876.72;2080966;28;20031;-69
2021/03/28 04:02:21;;;;;;;20.73;16.40;;;;;;;18.80;48.49;100883.03;2081410;28;20029;-71
2021/03/28 04:03:33;;;;;;;26.42;16.20;;;;;;;18.80;48.67;100886.63;2082717;28;20033;-70
2021/03/28 04:04:58;;;;;;;23.85;16.38;;;;;;;18.80;48.53;100885.78;2081499;28;20488;-70
2021/03/28 04:06:01;;;;;;;18.92;15.25;;;;;;;18.79;48.51;100887.66;2083878;28;20025;-70
2021/03/28 04:07:19;;;;;;;21.17;16.67;;;;;;;18.77;48.43;100884.16;2089803;28;20020;-70
2021/03/28 04:08:31;;;;;;;21.38;15.80;;;;;;;18.76;48.46;100887.00;2089395;28;20379;-70
2021/03/28 04:09:37;;;;;;;20.55;15.57;;;;;;;18.76;48.62;100887.88;2083270;28;20033;-70
2021/03/28 04:11:09;;;;;;;22.30;15.75;;;;;;;18.77;48.27;100895.09;2081697;28;20510;-70
2021/03/28 04:12:18;;;;;;;22.20;15.52;;;;;;;18.77;48.34;100900.56;2081535;28;20471;-70
2021/03/28 04:13:27;;;;;;;20.17;15.90;;;;;;;18.80;47.99;100894.81;2075019;28;20492;-70
2021/03/28 04:14:52;;;;;;;20.98;16.08;;;;;;;18.83;47.96;100897.28;2073950;28;20025;-69
2021/03/28 04:16:15;;;;;;;20.10;15.43;;;;;;;18.85;47.98;100903.50;2074205;28;20054;-70
2021/03/28 04:17:53;;;;;;;20.73;16.17;;;;;;;18.81;48.07;100904.78;2075573;28;20504;-70
2021/03/28 04:19:11;;;;;;;20.15;14.70;;;;;;;18.81;48.14;100907.50;2073917;28;20582;-70
2021/03/28 04:20:18;;;;;;;20.88;15.50;;;;;;;18.80;48.11;100910.34;2085362;28;20025;-70
2021/03/28 04:21:43;;;;;;;20.83;15.32;;;;;;;18.84;48.02;100914.56;2081157;28;20036;-70
2021/03/28 04:22:49;;;;;;;23.33;17.05;;;;;;;18.81;48.03;100912.97;2076716;28;20450;-70
2021/03/28 04:23:52;;;;;;;20.65;15.73;;;;;;;18.85;47.99;100914.44;2078528;28;20033;-69
2021/03/28 04:25:48;;;;;;;18.98;15.55;;;;;;;18.84;48.13;100917.31;2077532;28;20021;-70
2021/03/28 04:26:49;;;;;;;19.48;15.48;;;;;;;18.85;48.06;100914.44;2046447;28;20120;-70
2021/03/28 04:27:52;;;;;;;19.67;16.00;;;;;;;18.88;47.90;100917.91;2051632;28;20081;-70
2021/03/28 04:28:56;;;;;;;20.48;15.38;;;;;;;18.90;47.89;100921.38;2056043;28;20513;-71
2021/03/28 04:29:57;;;;;;;18.55;14.98;;;;;;;18.90;47.79;100907.72;2075825;28;20021;-70
2021/03/28 04:30:57;;;;;;;20.23;15.90;;;;;;;18.91;47.86;100910.31;2078596;28;20100;-70
2021/03/28 04:32:13;;;;;;;20.43;16.00;;;;;;;18.90;47.78;100921.38;2077214;28;20040;-70
2021/03/28 04:33:25;;;;;;;19.08;15.73;;;;;;;18.91;47.71;100921.22;2076817;28;20112;-71
2021/03/28 04:34:39;;;;;;;21.52;14.70;;;;;;;18.89;47.85;100920.53;2071559;28;20497;-71
2021/03/28 04:36:11;;;;;;;21.05;14.13;;;;;;;18.90;47.92;100924.13;2076659;28;20210;-71
2021/03/28 04:37:27;;;;;;;19.15;15.30;;;;;;;18.90;47.77;100924.13;2076473;28;20625;-70
2021/03/28 04:38:41;;;;;;;19.02;15.48;;;;;;;18.92;47.87;100924.84;2074333;28;20060;-70
2021/03/28 04:40:00;;;;;;;21.00;16.02;;;;;;;18.92;47.75;100924.84;2078741;28;20033;-71
2021/03/28 04:41:27;;;;;;;20.27;15.73;;;;;;;18.92;47.77;100924.84;2076698;28;20052;-71
2021/03/28 04:43:13;;;;;;;19.40;14.90;;;;;;;18.94;47.48;100928.34;2073961;28;20033;-71
2021/03/28 04:44:55;;;;;;;20.40;15.35;;;;;;;18.92;47.60;100927.59;2068692;28;20057;-71
2021/03/28 04:46:14;;;;;;;20.92;14.35;;;;;;;18.91;47.61;100928.56;2067868;28;20065;-71
2021/03/28 04:47:32;;;;;;;19.85;14.68;;;;;;;18.93;47.70;100923.84;2077415;28;20033;-71
2021/03/28 04:48:59;;;;;;;18.90;14.75;;;;;;;18.91;47.80;100925.84;2071515;28;20412;-71
2021/03/28 04:50:25;;;;;;;18.88;14.63;;;;;;;18.90;47.64;100924.13;2079012;28;20025;-71
2021/03/28 04:51:48;;;;;;;19.55;14.43;;;;;;;18.90;47.54;100910.44;2068060;28;20117;-70
2021/03/28 04:53:02;;;;;;;18.35;14.43;;;;;;;18.88;47.75;100928.81;2079385;28;20116;-68
2021/03/28 04:54:21;;;;;;;21.13;15.20;;;;;;;18.88;47.85;100924.22;2079207;28;20041;-69
2021/03/28 04:55:49;;;;;;;18.88;14.63;;;;;;;18.90;47.85;100918.66;2075480;28;20033;-72
2021/03/28 04:57:01;;;;;;;20.45;13.90;;;;;;;18.85;47.73;100927.22;2078702;28;20036;-72
2021/03/28 04:58:26;;;;;;;20.23;13.82;;;;;;;18.84;47.74;100929.09;2073759;28;20033;-72
2021/03/28 04:59:46;;;;;;;21.63;14.20;;;;;;;18.82;47.94;100925.63;2075234;28;20543;-73
2021/03/28 05:01:19;;;;;;;18.70;14.25;;;;;;;18.79;47.94;100931.34;2072613;28;20041;-72
2021/03/28 05:02:44;;;;;;;21.80;14.15;;;;;;;18.78;48.02;100936.94;2072946;28;20113;-73
2021/03/28 05:04:14;;;;;;;21.02;14.63;;;;;;;18.77;47.87;100936.06;2081903;28;20468;-73
2021/03/28 05:05:48;;;;;;;19.25;13.90;;;;;;;18.76;47.92;100936.19;2066094;28;20037;-71
2021/03/28 05:07:11;;;;;;;21.80;14.20;;;;;;;18.75;47.92;100938.00;2075569;28;20374;-71
2021/03/28 05:08:50;;;;;;;19.48;13.82;;;;;;;18.74;48.11;100943.59;2081510;28;20051;-72
2021/03/28 05:10:28;;;;;;;19.55;13.95;;;;;;;18.73;48.09;100941.88;2075751;28;20037;-72
2021/03/28 05:12:07;;;;;;;18.10;13.55;;;;;;;18.71;47.93;100935.66;2075805;28;20361;-71
2021/03/28 05:13:47;;;;;;;18.05;13.35;;;;;;;18.68;48.13;100944.97;2064510;28;20792;-71
2021/03/28 05:15:13;;;;;;;19.23;13.30;;;;;;;18.69;47.95;100944.00;2063525;28;20056;-72
2021/03/28 05:16:32;;;;;;;17.63;13.77;;;;;;;18.70;48.10;100940.25;2075249;28;20104;-72
2021/03/28 05:17:33;;;;;;;16.88;13.68;;;;;;;18.73;47.88;100950.94;2077343;28;20084;-72
2021/03/28 05:19:11;;;;;;;17.30;14.03;;;;;;;18.72;47.91;100941.00;2078342;28;20033;-72
2021/03/28 05:20:29;;;;;;;17.38;13.73;;;;;;;18.76;47.96;100942.50;2077528;28;20075;-72
2021/03/28 05:21:51;;;;;;;18.48;13.32;;;;;;;18.75;47.83;100946.22;2074205;28;20560;-72
2021/03/28 05:23:09;;;;;;;17.65;13.43;;;;;;;18.74;47.91;100943.59;2073988;28;20033;-72
2021/03/28 05:24:27;;;;;;;17.00;13.52;;;;;;;18.72;47.76;100940.16;2076139;28;20033;-72
2021/03/28 05:26:15;;;;;;;16.77;12.95;;;;;;;18.70;47.98;100958.53;2072749;28;20448;-72
2021/03/28 05:27:48;;;;;;;18.60;13.55;;;;;;;18.70;47.95;100944.88;2072551;28;20101;-70
2021/03/28 05:29:26;;;;;;;21.05;13.77;;;;;;;18.71;48.03;100950.19;2075612;28;20053;-71
2021/03/28 05:30:45;;;;;;;18.05;13.80;;;;;;;18.73;48.05;100948.19;2079395;28;20030;-71
2021/03/28 05:32:17;;;;;;;16.05;12.30;;;;;;;18.74;48.07;100951.78;2076227;28;20025;-71
2021/03/28 05:33:39;;;;;;;18.00;13.70;;;;;;;18.74;48.12;100951.78;2079420;28;20025;-72
2021/03/28 05:35:00;;;;;;;16.65;13.07;;;;;;;18.72;48.07;100956.53;2080232;28;20276;-71
2021/03/28 05:36:16;;;;;;;17.33;12.82;;;;;;;18.70;48.09;100953.91;2072454;28;20014;-70
2021/03/28 05:37:49;;;;;;;20.20;12.82;;;;;;;18.69;48.18;100957.66;2078517;28;20025;-70
2021/03/28 05:39:16;;;;;;;17.50;12.27;;;;;;;18.70;48.25;100962.09;2095402;28;20024;-70
2021/03/28 05:40:25;;;;;;;18.30;13.73;;;;;;;18.68;48.26;100960.50;2094013;28;20029;-71
2021/03/28 05:41:47;;;;;;;15.77;12.35;;;;;;;18.67;48.29;100969.66;2089599;28;20021;-68
2021/03/28 05:43:18;;;;;;;15.88;12.32;;;;;;;18.67;48.13;100975.13;2089807;28;20543;-70
2021/03/28 05:44:40;;;;;;;19.05;12.45;;;;;;;18.66;48.27;100968.81;2089504;28;20021;-70
2021/03/28 05:46:02;;;;;;;13.57;11.35;;;;;;;18.68;48.27;100966.81;2089749;28;20017;-70
2021/03/28 05:47:13;;;;;;;16.40;13.02;;;;;;;18.68;48.03;100972.28;2089853;28;20085;-72
2021/03/28 05:48:32;;;;;;;14.27;11.38;;;;;;;18.70;48.24;100975.75;2080414;28;20029;-71
2021/03/28 05:49:37;;;;;;;15.40;11.55;;;;;;;18.73;47.94;100970.03;2081439;28;20048;-71
2021/03/28 05:50:50;;;;;;;17.60;12.93;;;;;;;18.75;47.90;100973.53;2081479;28;20053;-71
2021/03/28 05:52:18;;;;;;;17.05;12.93;;;;;;;18.77;47.82;100977.03;2081363;28;20425;-71
2021/03/28 05:53:21;;;;;;;15.32;11.68;;;;;;;18.78;47.79;100984.22;2081164;28;20499;-70
2021/03/28 05:55:08;;;;;;;15.02;11.88;;;;;;;18.78;48.01;100984.22;2081337;28;20515;-71
2021/03/28 05:57:00;;;;;;;16.45;12.15;;;;;;;18.78;47.93;100988.81;2081846;28;20137;-71
2021/03/28 05:58:19;;;;;;;18.25;12.63;;;;;;;18.76;47.93;100991.66;2083222;28;20057;-71